createdAt,value
2019-03-15T00:04:20.438Z,13.20
2019-03-15T00:06:50.392Z,6.35
2019-03-15T00:12:31.125Z,6.47
2019-03-15T00:15:40.533Z,6.23
2019-03-15T00:18:09.917Z,6.30
2019-03-15T00:20:39.335Z,12.13
2019-03-15T00:23:08.697Z,8.90
2019-03-15T00:25:50.505Z,8.13
2019-03-15T00:28:20.161Z,8.08
2019-03-15T00:30:49.504Z,8.57
2019-03-15T00:33:19.457Z,5.30
2019-03-15T00:35:48.822Z,12.30
2019-03-15T00:38:18.481Z,6.78
2019-03-15T00:40:47.826Z,6.33
2019-03-15T00:43:17.487Z,5.45
2019-03-15T00:45:46.961Z,2.90
2019-03-15T00:48:16.566Z,18.90
2019-03-15T00:50:45.914Z,16.37
2019-03-15T00:53:15.842Z,14.07
2019-03-15T00:55:57.967Z,4.53
2019-03-15T00:58:28.673Z,8.13
2019-03-15T01:00:58.389Z,6.20
2019-03-15T01:03:27.734Z,6.80
2019-03-15T01:05:57.401Z,10.48
2019-03-15T01:08:26.753Z,11.53
2019-03-15T01:10:56.432Z,11.53
2019-03-15T01:13:25.779Z,13.00
2019-03-15T01:15:55.447Z,11.10
2019-03-15T01:18:24.793Z,9.87
2019-03-15T01:20:54.463Z,13.28
2019-03-15T01:23:23.809Z,5.73
2019-03-15T01:25:53.477Z,11.15
2019-03-15T01:28:23.061Z,14.27
2019-03-15T01:31:12.996Z,11.97
2019-03-15T01:33:42.759Z,5.57
2019-03-15T01:36:25.060Z,8.05
2019-03-15T01:39:06.692Z,14.77
2019-03-15T01:41:36.036Z,15.33
2019-03-15T01:44:05.702Z,7.17
2019-03-15T01:46:35.064Z,10.30
2019-03-15T01:49:04.727Z,15.27
2019-03-15T01:51:34.385Z,8.30
2019-03-15T01:54:04.199Z,5.03
2019-03-15T01:56:33.601Z,6.73
2019-03-15T01:59:03.920Z,3.83
2019-03-15T02:01:52.920Z,9.53
2019-03-15T02:04:22.550Z,18.03
2019-03-15T02:06:51.901Z,12.30
2019-03-15T02:09:21.817Z,8.90
2019-03-15T02:11:51.138Z,4.23
2019-03-15T02:15:01.115Z,10.63
2019-03-15T02:17:30.687Z,11.70
2019-03-15T02:20:00.049Z,15.57
2019-03-15T02:22:29.632Z,9.37
2019-03-15T02:24:58.994Z,12.20
2019-03-15T02:27:28.609Z,9.97
2019-03-15T02:29:57.970Z,11.87
2019-03-15T02:32:27.622Z,12.95
2019-03-15T02:34:56.993Z,11.77
2019-03-15T02:37:26.635Z,11.10
2019-03-15T02:39:56.005Z,9.70
2019-03-15T02:42:26.395Z,13.13
2019-03-15T02:48:07.872Z,15.60
2019-03-15T02:50:37.234Z,7.60
2019-03-15T02:53:06.915Z,19.50
2019-03-15T02:55:36.567Z,4.67
2019-03-15T02:58:06.070Z,7.87
2019-03-15T03:00:37.036Z,11.43
2019-03-15T03:03:06.688Z,12.73
2019-03-15T03:05:36.064Z,11.00
2019-03-15T03:08:05.728Z,10.77
2019-03-15T03:10:35.084Z,8.40
2019-03-15T03:13:04.745Z,13.60
2019-03-15T03:15:34.088Z,7.70
2019-03-15T03:18:04.397Z,18.75
2019-03-15T03:20:33.811Z,13.93
2019-03-15T03:23:04.250Z,15.70
2019-03-15T03:25:33.811Z,12.00
2019-03-15T03:28:04.034Z,16.10
2019-03-15T03:30:33.735Z,10.37
2019-03-15T03:33:15.959Z,14.58
2019-03-15T03:35:45.329Z,9.77
2019-03-15T03:38:14.961Z,7.83
2019-03-15T03:40:44.320Z,10.63
2019-03-15T03:43:26.797Z,8.67
2019-03-15T03:45:56.508Z,6.37
2019-03-15T03:48:25.870Z,11.03
2019-03-15T03:50:55.214Z,6.57
2019-03-15T03:53:24.864Z,4.80
2019-03-15T03:55:54.213Z,8.60
2019-03-15T04:07:42.065Z,9.07
2019-03-15T04:10:52.066Z,10.28
2019-03-15T04:13:21.420Z,18.02
2019-03-15T04:15:51.032Z,13.40
2019-03-15T04:18:20.413Z,14.43
2019-03-15T04:21:02.077Z,4.93
2019-03-15T04:23:31.736Z,8.48
2019-03-15T04:29:10.205Z,3.93
2019-03-15T04:31:39.845Z,7.30
2019-03-15T04:34:09.520Z,10.33
2019-03-15T04:36:39.170Z,9.57
2019-03-15T04:39:08.536Z,14.90
2019-03-15T04:41:57.681Z,14.63
2019-03-15T04:44:46.164Z,9.23
2019-03-15T04:47:16.505Z,4.03
2019-03-15T04:49:58.573Z,14.40
2019-03-15T04:52:40.342Z,14.83
2019-03-15T04:55:10.322Z,9.10
2019-03-15T04:57:39.967Z,9.95
2019-03-15T05:00:51.294Z,11.73
2019-03-15T05:03:22.291Z,14.43
2019-03-15T05:06:02.490Z,10.37
2019-03-15T05:08:31.587Z,9.10
2019-03-15T05:11:01.262Z,8.03
2019-03-15T05:13:30.628Z,15.20
2019-03-15T05:16:00.435Z,8.47
2019-03-15T05:18:30.097Z,10.48
2019-03-15T05:20:59.760Z,3.87
2019-03-15T05:26:31.250Z,11.60
2019-03-15T05:29:00.616Z,2.57
2019-03-15T05:31:49.616Z,8.70
2019-03-15T05:34:19.266Z,7.20
2019-03-15T05:36:48.710Z,8.47
2019-03-15T05:39:18.578Z,12.85
2019-03-15T05:41:47.949Z,12.03
2019-03-15T05:44:17.540Z,6.23
2019-03-15T05:46:46.899Z,9.07
2019-03-15T05:49:16.540Z,9.47
2019-03-15T05:51:45.897Z,10.43
2019-03-15T05:54:15.531Z,6.40
2019-03-15T05:56:44.909Z,3.50
2019-03-15T05:59:14.437Z,10.13
2019-03-15T06:01:43.793Z,8.93
2019-03-15T06:04:13.786Z,13.70
2019-03-15T06:06:55.880Z,10.67
2019-03-15T06:09:25.409Z,11.33
2019-03-15T06:11:54.774Z,9.70
2019-03-15T06:14:24.416Z,6.45
2019-03-15T06:16:53.789Z,11.73
2019-03-15T06:19:23.690Z,10.17
2019-03-15T06:21:53.320Z,9.73
2019-03-15T06:24:22.688Z,6.47
2019-03-15T06:26:52.028Z,9.37
2019-03-15T06:29:21.570Z,11.83
2019-03-15T06:31:50.915Z,4.60
2019-03-15T06:34:20.696Z,7.33
2019-03-15T06:36:50.375Z,5.90
2019-03-15T06:39:19.827Z,11.70
2019-03-15T06:41:49.171Z,10.30
2019-03-15T06:44:18.742Z,14.17
2019-03-15T06:46:48.399Z,12.95
2019-03-15T06:49:20.943Z,10.28
2019-03-15T06:52:10.092Z,11.87
2019-03-15T06:54:39.556Z,12.57
2019-03-15T06:57:10.850Z,12.70
2019-03-15T06:59:40.210Z,12.20
2019-03-15T07:02:09.879Z,16.80
2019-03-15T07:04:39.517Z,6.50
2019-03-15T07:07:21.495Z,14.17
2019-03-15T07:09:51.126Z,9.97
2019-03-15T07:12:20.792Z,11.90
2019-03-15T07:14:50.158Z,10.60
2019-03-15T07:17:19.796Z,8.65
2019-03-15T07:19:49.448Z,9.83
2019-03-15T07:22:38.278Z,8.40
2019-03-15T07:25:39.161Z,3.27
2019-03-15T07:28:09.176Z,16.40
2019-03-15T07:30:51.066Z,12.90
2019-03-15T07:33:21.414Z,14.47
2019-03-15T07:35:57.880Z,10.00
2019-03-15T07:38:28.869Z,18.37
2019-03-15T07:40:58.229Z,15.80
2019-03-15T07:43:27.760Z,19.97
2019-03-15T07:45:57.107Z,23.87
2019-03-15T07:48:27.098Z,18.20
2019-03-15T07:50:56.408Z,22.33
2019-03-15T07:53:25.884Z,20.13
2019-03-15T07:55:55.238Z,19.03
2019-03-15T07:58:24.864Z,24.00
2019-03-15T08:00:54.247Z,24.50
2019-03-15T08:03:23.837Z,16.53
2019-03-15T08:05:53.189Z,16.27
2019-03-15T08:08:23.247Z,15.43
2019-03-15T08:10:55.152Z,10.83
2019-03-15T08:13:30.882Z,10.33
2019-03-15T08:16:00.238Z,13.23
2019-03-15T08:18:29.894Z,11.17
2019-03-15T08:21:00.963Z,10.43
2019-03-15T08:26:39.723Z,12.68
2019-03-15T08:29:10.099Z,11.87
2019-03-15T08:31:47.052Z,18.47
2019-03-15T08:34:22.089Z,24.03
2019-03-15T08:36:53.052Z,17.63
2019-03-15T08:39:22.429Z,18.20
2019-03-15T08:41:51.920Z,19.67
2019-03-15T08:44:21.588Z,20.83
2019-03-15T08:46:51.087Z,21.63
2019-03-15T08:49:20.453Z,27.73
2019-03-15T08:52:03.123Z,29.03
2019-03-15T08:54:40.178Z,15.30
2019-03-15T08:57:09.538Z,25.48
2019-03-15T08:59:52.388Z,23.77
2019-03-15T09:02:16.617Z,16.82
2019-03-15T09:04:46.194Z,25.60
2019-03-15T09:07:15.561Z,17.53
2019-03-15T09:09:45.066Z,19.93
2019-03-15T09:12:14.801Z,20.90
2019-03-15T09:14:44.458Z,18.63
2019-03-15T09:17:14.108Z,23.50
2019-03-15T09:19:43.487Z,25.17
2019-03-15T09:22:13.486Z,18.15
2019-03-15T09:24:43.197Z,21.73
2019-03-15T09:27:12.559Z,15.63
2019-03-15T09:29:42.333Z,24.30
2019-03-15T09:32:13.849Z,19.15
2019-03-15T09:34:43.253Z,20.53
2019-03-15T09:37:12.629Z,18.90
2019-03-15T09:39:42.412Z,24.23
2019-03-15T09:42:12.095Z,16.10
2019-03-15T09:44:41.458Z,19.03
2019-03-15T09:47:11.567Z,12.55
2019-03-15T09:49:41.211Z,19.70
2019-03-15T09:52:10.575Z,22.50
2019-03-15T09:54:40.168Z,17.70
2019-03-15T09:57:09.852Z,19.10
2019-03-15T09:59:39.560Z,14.47
2019-03-15T10:02:09.493Z,19.02
2019-03-15T10:04:38.863Z,15.20
2019-03-15T10:07:37.745Z,16.13
2019-03-15T10:10:49.000Z,18.42
2019-03-15T10:13:22.424Z,23.83
2019-03-15T10:15:55.417Z,20.87
2019-03-15T10:18:28.423Z,12.80
2019-03-15T10:20:57.770Z,15.60
2019-03-15T10:23:27.465Z,18.20
2019-03-15T10:25:56.815Z,11.97
2019-03-15T10:28:26.437Z,12.60
2019-03-15T10:30:55.802Z,15.87
2019-03-15T10:33:49.911Z,14.47
2019-03-15T10:36:09.027Z,13.27
2019-03-15T10:38:38.470Z,9.90
2019-03-15T10:41:07.829Z,13.30
2019-03-15T10:43:37.731Z,14.27
2019-03-15T10:46:07.402Z,15.97
2019-03-15T10:48:36.777Z,13.27
2019-03-15T10:51:06.428Z,12.65
2019-03-15T10:53:35.811Z,15.47
2019-03-15T10:56:05.774Z,11.07
2019-03-15T10:58:35.448Z,12.55
2019-03-15T11:01:05.869Z,8.78
2019-03-15T11:03:35.446Z,12.73
2019-03-15T11:06:05.757Z,7.37
2019-03-15T11:08:35.427Z,9.55
2019-03-15T11:11:05.922Z,12.50
2019-03-15T11:13:47.327Z,10.67
2019-03-15T11:16:17.034Z,12.67
2019-03-15T11:18:46.507Z,16.00
2019-03-15T11:21:15.864Z,11.75
2019-03-15T11:23:45.216Z,11.77
2019-03-15T11:26:15.188Z,18.85
2019-03-15T11:28:44.563Z,38.83
2019-03-15T11:31:13.923Z,30.40
2019-03-15T11:33:43.575Z,17.03
2019-03-15T11:36:13.233Z,12.87
2019-03-15T11:38:42.727Z,16.40
2019-03-15T11:41:12.447Z,36.17
2019-03-15T11:43:41.803Z,11.60
2019-03-15T11:46:11.468Z,8.98
2019-03-15T11:48:40.812Z,7.20
2019-03-15T11:51:10.184Z,8.55
2019-03-15T11:53:39.787Z,7.70
2019-03-15T11:56:09.147Z,4.87
2019-03-15T11:58:38.673Z,6.37
2019-03-15T12:01:08.035Z,6.40
2019-03-15T12:03:37.680Z,5.37
2019-03-15T12:06:08.970Z,6.23
2019-03-15T12:08:38.338Z,3.70
2019-03-15T12:11:08.082Z,4.33
2019-03-15T12:13:37.668Z,5.07
2019-03-15T12:16:07.806Z,4.17
2019-03-15T12:18:37.174Z,5.57
2019-03-15T12:21:06.837Z,3.90
2019-03-15T12:23:36.217Z,5.47
2019-03-15T12:26:06.342Z,4.70
2019-03-15T12:28:35.803Z,5.00
2019-03-15T12:33:54.776Z,5.97
2019-03-15T12:36:24.145Z,6.60
2019-03-15T12:38:53.789Z,6.70
2019-03-15T12:41:24.795Z,3.40
2019-03-15T12:44:13.637Z,5.50
2019-03-15T12:46:42.998Z,5.27
2019-03-15T12:52:07.431Z,6.67
2019-03-15T12:54:36.935Z,6.53
2019-03-15T12:57:26.105Z,3.37
2019-03-15T12:59:55.473Z,3.77
2019-03-15T13:02:25.065Z,7.00
2019-03-15T13:04:54.436Z,1.83
2019-03-15T13:07:24.095Z,3.37
2019-03-15T13:09:53.455Z,6.03
2019-03-15T13:12:23.115Z,6.23
2019-03-15T13:14:54.098Z,3.73
2019-03-15T13:17:23.701Z,3.23
2019-03-15T13:19:55.363Z,7.20
2019-03-15T13:22:43.237Z,1.10
2019-03-15T13:25:54.744Z,2.45
2019-03-15T13:28:30.203Z,3.23
2019-03-15T13:30:59.565Z,4.10
2019-03-15T13:33:29.204Z,6.33
2019-03-15T13:35:58.570Z,3.37
2019-03-15T13:38:28.076Z,3.40
2019-03-15T13:40:57.445Z,2.40
2019-03-15T13:43:27.053Z,4.13
2019-03-15T13:45:56.778Z,3.30
2019-03-15T13:48:26.215Z,4.33
2019-03-15T13:50:55.576Z,4.97
2019-03-15T13:53:25.186Z,5.30
2019-03-15T13:55:54.540Z,3.50
2019-03-15T13:58:24.472Z,5.30
2019-03-15T14:00:53.846Z,2.90
2019-03-15T14:03:23.305Z,2.13
2019-03-15T14:05:52.666Z,3.27
2019-03-15T14:08:22.307Z,1.92
2019-03-15T14:10:51.677Z,11.47
2019-03-15T14:13:21.464Z,3.92
2019-03-15T14:15:50.836Z,2.10
2019-03-15T14:18:22.100Z,5.70
2019-03-15T14:20:51.465Z,3.57
2019-03-15T14:23:21.126Z,5.78
2019-03-15T14:25:50.481Z,2.10
2019-03-15T14:28:32.425Z,6.17
2019-03-15T14:31:01.769Z,2.07
2019-03-15T14:33:31.442Z,2.60
2019-03-15T14:36:03.781Z,9.00
2019-03-15T14:38:37.495Z,4.07
2019-03-15T14:41:07.688Z,2.00
2019-03-15T14:43:43.626Z,4.50
2019-03-15T14:46:13.172Z,2.37
2019-03-15T14:48:42.394Z,2.93
2019-03-15T14:51:11.762Z,3.20
2019-03-15T14:53:41.391Z,2.70
2019-03-15T14:56:10.995Z,1.98
2019-03-15T14:58:40.534Z,7.20
2019-03-15T15:01:09.904Z,4.93
2019-03-15T15:03:39.420Z,5.17
2019-03-15T15:06:08.784Z,3.60
2019-03-15T15:08:57.709Z,3.30
2019-03-15T15:11:27.370Z,3.25
2019-03-15T15:13:56.714Z,1.97
2019-03-15T15:16:26.078Z,2.97
2019-03-15T15:18:55.500Z,3.60
2019-03-15T15:21:24.854Z,1.90
2019-03-15T15:23:54.518Z,2.10
2019-03-15T15:26:23.881Z,2.35
2019-03-15T15:28:53.518Z,3.77
2019-03-15T15:31:22.889Z,1.50
2019-03-15T15:33:52.531Z,2.85
2019-03-15T15:36:21.902Z,2.70
2019-03-15T15:38:54.057Z,3.27
2019-03-15T15:41:23.692Z,1.80
2019-03-15T15:43:53.061Z,1.83
2019-03-15T15:46:22.830Z,2.85
2019-03-15T15:48:52.452Z,3.08
2019-03-15T15:51:21.897Z,2.40
2019-03-15T15:53:52.868Z,6.40
2019-03-15T15:56:22.243Z,2.55
2019-03-15T15:58:51.746Z,1.60
2019-03-15T16:01:21.156Z,1.83
2019-03-15T16:03:50.739Z,5.13
2019-03-15T16:06:20.108Z,1.80
2019-03-15T16:08:49.609Z,2.20
2019-03-15T16:11:19.264Z,0.93
2019-03-15T16:13:48.776Z,1.10
2019-03-15T16:16:18.479Z,4.90
2019-03-15T16:18:47.911Z,5.50
2019-03-15T16:21:17.579Z,2.35
2019-03-15T16:23:46.949Z,2.13
2019-03-15T16:26:17.172Z,3.45
2019-03-15T16:28:46.865Z,5.77
2019-03-15T16:31:18.133Z,6.17
2019-03-15T16:33:47.785Z,3.95
2019-03-15T16:36:17.143Z,2.37
2019-03-15T16:38:46.754Z,1.83
2019-03-15T16:41:16.391Z,2.17
2019-03-15T16:43:45.885Z,2.47
2019-03-15T16:46:15.252Z,5.83
2019-03-15T16:48:44.783Z,2.47
2019-03-15T16:51:19.531Z,3.90
2019-03-15T16:54:04.300Z,2.83
2019-03-15T16:56:33.859Z,4.30
2019-03-15T16:59:03.449Z,2.60
2019-03-15T17:01:33.008Z,4.63
2019-03-15T17:04:02.355Z,3.90
2019-03-15T17:06:31.885Z,3.27
2019-03-15T17:09:01.228Z,3.97
2019-03-15T17:11:32.202Z,1.50
2019-03-15T17:14:02.091Z,3.85
2019-03-15T17:16:33.069Z,3.07
2019-03-15T17:19:02.693Z,4.73
2019-03-15T17:21:32.050Z,6.90
2019-03-15T17:24:03.082Z,3.07
2019-03-15T17:26:32.745Z,3.83
2019-03-15T17:29:02.148Z,6.10
2019-03-15T17:31:31.508Z,4.23
2019-03-15T17:34:00.982Z,4.23
2019-03-15T17:36:30.360Z,2.80
2019-03-15T17:38:59.985Z,1.73
2019-03-15T17:41:29.331Z,2.30
2019-03-15T17:43:58.985Z,3.62
2019-03-15T17:46:28.348Z,3.60
2019-03-15T17:48:58.020Z,1.30
2019-03-15T17:51:27.720Z,2.20
2019-03-15T17:53:57.066Z,0.90
2019-03-15T17:56:26.436Z,2.93
2019-03-15T17:58:56.074Z,3.30
2019-03-15T18:01:25.445Z,2.40
2019-03-15T18:03:55.130Z,5.47
2019-03-15T18:06:24.501Z,3.40
2019-03-15T18:08:54.067Z,0.83
2019-03-15T18:11:23.708Z,1.73
2019-03-15T18:13:53.301Z,3.37
2019-03-15T18:16:22.645Z,4.93
2019-03-15T18:18:52.225Z,2.67
2019-03-15T18:21:21.571Z,8.53
2019-03-15T18:23:51.215Z,4.63
2019-03-15T18:26:20.846Z,0.73
2019-03-15T18:28:50.349Z,2.20
2019-03-15T18:31:19.694Z,2.90
2019-03-15T18:33:49.337Z,6.20
2019-03-15T18:42:00.228Z,3.30
2019-03-15T18:44:29.573Z,3.87
2019-03-15T18:46:59.219Z,5.58
2019-03-15T18:49:28.572Z,6.73
2019-03-15T18:51:58.220Z,7.20
2019-03-15T18:54:27.562Z,5.43
2019-03-15T18:56:57.578Z,5.83
2019-03-15T18:59:39.386Z,5.00
2019-03-15T19:02:03.691Z,13.83
2019-03-15T19:04:41.982Z,6.17
2019-03-15T19:07:11.618Z,12.47
2019-03-15T19:09:41.271Z,4.00
2019-03-15T19:12:10.898Z,6.37
2019-03-15T19:14:40.354Z,6.93
2019-03-15T19:17:09.693Z,2.43
2019-03-15T19:19:39.621Z,2.25
2019-03-15T19:22:09.262Z,5.87
2019-03-15T19:24:38.636Z,5.30
2019-03-15T19:27:27.585Z,6.00
2019-03-15T19:29:57.242Z,2.02
2019-03-15T19:32:26.611Z,5.67
2019-03-15T19:34:55.952Z,7.23
2019-03-15T19:37:25.604Z,5.65
2019-03-15T19:39:54.981Z,5.30
2019-03-15T19:42:24.468Z,5.20
2019-03-15T19:44:53.836Z,8.63
2019-03-15T19:47:23.769Z,7.00
2019-03-15T19:49:53.133Z,9.30
2019-03-15T19:52:22.821Z,5.77
2019-03-15T19:55:00.357Z,7.50
2019-03-15T19:57:42.751Z,3.40
2019-03-15T20:00:52.463Z,3.50
2019-03-15T20:03:21.833Z,6.33
2019-03-15T20:05:51.729Z,7.60
2019-03-15T20:08:21.141Z,4.55
2019-03-15T20:11:09.994Z,2.80
2019-03-15T20:13:39.676Z,4.07
2019-03-15T20:16:09.023Z,9.90
2019-03-15T20:18:57.591Z,8.60
2019-03-15T20:24:22.833Z,4.67
2019-03-15T20:26:52.524Z,4.03
2019-03-15T20:29:22.189Z,12.57
2019-03-15T20:31:51.732Z,6.10
2019-03-15T20:34:22.703Z,4.55
2019-03-15T20:36:52.051Z,3.37
2019-03-15T20:39:21.711Z,6.15
2019-03-15T20:41:51.050Z,4.50
2019-03-15T20:44:28.291Z,6.13
2019-03-15T20:47:11.157Z,5.43
2019-03-15T20:49:53.456Z,17.20
2019-03-15T20:52:23.338Z,3.83
2019-03-15T20:54:52.691Z,6.07
2019-03-15T20:57:22.045Z,11.80
2019-03-15T21:00:12.178Z,7.40
2019-03-15T21:03:01.069Z,2.27
2019-03-15T21:05:43.474Z,6.43
2019-03-15T21:08:13.122Z,6.60
2019-03-15T21:10:42.822Z,6.57
2019-03-15T21:13:12.530Z,11.10
2019-03-15T21:15:41.885Z,11.03
2019-03-15T21:18:11.227Z,7.20
2019-03-15T21:21:00.054Z,7.80
2019-03-15T21:23:29.997Z,2.92
2019-03-15T21:25:59.355Z,3.90
2019-03-15T21:28:28.907Z,8.73
2019-03-15T21:30:58.612Z,5.83
2019-03-15T21:33:27.960Z,9.67
2019-03-15T21:35:57.330Z,6.97
2019-03-15T21:38:26.770Z,6.80
2019-03-15T21:40:56.137Z,8.40
2019-03-15T21:43:25.768Z,4.85
2019-03-15T21:45:55.130Z,5.20
2019-03-15T21:48:24.775Z,1.87
2019-03-15T21:50:54.133Z,7.53
2019-03-15T21:53:24.072Z,5.70
2019-03-15T21:55:53.439Z,5.20
2019-03-15T21:58:23.078Z,4.17
2019-03-15T22:01:02.207Z,6.63
2019-03-15T22:03:42.917Z,4.28
2019-03-15T22:06:12.282Z,5.37
2019-03-15T22:08:53.991Z,6.17
2019-03-15T22:11:23.996Z,2.37
2019-03-15T22:13:53.347Z,4.63
2019-03-15T22:16:23.024Z,4.40
2019-03-15T22:18:52.358Z,2.10
2019-03-15T22:21:21.949Z,3.62
2019-03-15T22:23:51.294Z,7.57
2019-03-15T22:26:21.546Z,4.03
2019-03-15T22:29:10.511Z,5.63
2019-03-15T22:31:52.768Z,10.03
2019-03-15T22:34:22.635Z,11.50
2019-03-15T22:37:11.435Z,1.67
2019-03-15T22:39:53.799Z,3.13
2019-03-15T22:42:23.323Z,2.20
2019-03-15T22:44:54.308Z,4.93
2019-03-15T22:47:23.670Z,4.65
2019-03-15T22:53:27.686Z,4.37
2019-03-15T22:55:57.460Z,5.23
2019-03-15T22:58:27.124Z,2.35
2019-03-15T23:00:56.493Z,5.50
2019-03-15T23:03:27.474Z,4.33
2019-03-15T23:05:57.117Z,3.98
2019-03-15T23:08:38.378Z,2.77
2019-03-15T23:11:08.593Z,8.35
2019-03-15T23:13:38.436Z,9.10
2019-03-15T23:16:08.571Z,6.08
2019-03-15T23:18:38.237Z,6.87
2019-03-15T23:21:08.621Z,3.33
2019-03-15T23:23:38.283Z,5.30
2019-03-15T23:26:08.707Z,5.15
2019-03-15T23:28:50.239Z,3.57
2019-03-15T23:31:19.815Z,5.80
2019-03-15T23:34:08.589Z,3.17
2019-03-15T23:36:50.418Z,3.42
2019-03-15T23:39:20.057Z,9.50
2019-03-15T23:42:08.869Z,5.27
2019-03-15T23:44:50.499Z,8.23
2019-03-15T23:47:19.903Z,5.07
2019-03-15T23:53:11.118Z,10.23
2019-03-15T23:55:40.828Z,4.70
2019-03-15T23:58:10.469Z,7.13
